This is the latest recevied weather packets stored in our database for station/object IZ7EXI-13. If no packets are shown the sender has not sent any weather packets the latest 10 day(s).
| Time | Temp. | Humidity | Pressure | Rain* | Wind** | Luminosity | Snow |
|---|---|---|---|---|---|---|---|
| 1777448217 | 22.22° C | 54% | 1018.6 hPa | - | - | - | - |
| 1777447317 | 21.67° C | 59% | 1018.6 hPa | - | - | - | - |
| 1777446453 | 20.56° C | 62% | 1018.7 hPa | - | - | - | - |
| 1777446442 | 20.56° C | 62% | 1018.7 hPa | - | - | - | - |
| 1777446417 | 20.56° C | 62% | 1018.7 hPa | - | - | - | - |
| 1777445516 | 19.44° C | 64% | 1018.7 hPa | - | - | - | - |
| 1777444639 | 18.89° C | 65% | 1018.7 hPa | - | - | - | - |
| 1777444616 | 18.89° C | 65% | 1018.7 hPa | - | - | - | - |
| 1777443716 | 18.89° C | 64% | 1018.7 hPa | - | - | - | - |
| 1777442816 | 17.78° C | 66% | 1018.7 hPa | - | - | - | - |
| 1777441915 | 16.67° C | 70% | 1018.7 hPa | - | - | - | - |
| 1777441015 | 16.11° C | 69% | 1018.7 hPa | - | - | - | - |
| 1777440115 | 15.56° C | 73% | 1018.6 hPa | - | - | - | - |
| 1777439215 | 15° C | 74% | 1018.5 hPa | - | - | - | - |
| 1777438315 | 14.44° C | 74% | 1018.3 hPa | - | - | - | - |
| 1777437414 | 14.44° C | 75% | 1018.3 hPa | - | - | - | - |
| 1777436514 | 14.44° C | 76% | 1018.3 hPa | - | - | - | - |
| 1777435614 | 13.89° C | 76% | 1018.2 hPa | - | - | - | - |
| 1777434745 | 14.44° C | 75% | 1018.2 hPa | - | - | - | - |
| 1777434714 | 14.44° C | 75% | 1018.2 hPa | - | - | - | - |
| 1777433848 | 14.44° C | 74% | 1018 hPa | - | - | - | - |
| 1777433813 | 14.44° C | 74% | 1018 hPa | - | - | - | - |
| 1777432913 | 15° C | 75% | 1018.1 hPa | - | - | - | - |
| 1777432013 | 15° C | 76% | 1018.1 hPa | - | - | - | - |
| 1777431113 | 15° C | 79% | 1018.1 hPa | - | - | - | - |
* Rain since midnight (hover to see other rain measurements)
** Current wind speed in m/s (hover to see current wind gust speed)